WZZ105 LTBJ-LDDU
Flight info
| Callsign | WZZ105 |
|---|---|
| Flight time | 1h 33m |
| Altitude | 34000 |
| Route | RIKSO UN127 LMO UN128 FSK UL608 DISOR DCT MAVAR DCT RETRA DCT TIBRI L187 MOKUN |
| Aircraft | A320/M-SDE3FGHIRWY/LB1 |
Departure
| Time | 2026-05-07 17:46 |
|---|---|
| Airport | Adnan Menderes International Airport (LTBJ) |
Arrival
| Time | 2026-05-07 19:20 |
|---|---|
| Airport | Dubrovnik Ruđer Bošković Airport (LDDU) |
| Time | Latitude | Longitude | Altitude | Speed | Heading |
|---|---|---|---|---|---|
| 2026-05-07 17:25 | 38.29296 | 27.15073 | 411 ft | 0 kts | 256° |
| 2026-05-07 17:36 | 38.29299 | 27.15089 | 411 ft | 4 kts | 261° |
| 2026-05-07 17:37 | 38.29300 | 27.15121 | 411 ft | 4 kts | 286° |
| 2026-05-07 17:37 | 38.29288 | 27.15146 | 411 ft | 4 kts | 338° |
| 2026-05-07 17:37 | 38.29279 | 27.15150 | 407 ft | 1 kts | 347° |
| 2026-05-07 17:37 | 38.29278 | 27.15150 | 411 ft | 0 kts | 347° |
| 2026-05-07 17:40 | 38.29283 | 27.15149 | 411 ft | 3 kts | 347° |
| 2026-05-07 17:41 | 38.29332 | 27.15133 | 409 ft | 9 kts | 346° |
| 2026-05-07 17:41 | 38.29399 | 27.15112 | 411 ft | 11 kts | 346° |
| 2026-05-07 17:41 | 38.29481 | 27.15088 | 411 ft | 13 kts | 347° |
| 2026-05-07 17:41 | 38.29577 | 27.15061 | 409 ft | 15 kts | 344° |
| 2026-05-07 17:42 | 38.29687 | 27.15026 | 408 ft | 17 kts | 346° |
| 2026-05-07 17:42 | 38.29813 | 27.14988 | 411 ft | 20 kts | 346° |
| 2026-05-07 17:42 | 38.29940 | 27.14967 | 411 ft | 12 kts | 33° |
| 2026-05-07 17:42 | 38.29949 | 27.15025 | 411 ft | 7 kts | 73° |
| 2026-05-07 17:43 | 38.29966 | 27.15094 | 412 ft | 8 kts | 75° |
| 2026-05-07 17:43 | 38.29977 | 27.15155 | 415 ft | 6 kts | 76° |
| 2026-05-07 17:43 | 38.29985 | 27.15194 | 415 ft | 5 kts | 76° |
| 2026-05-07 17:43 | 38.30002 | 27.15240 | 418 ft | 8 kts | 38° |
| 2026-05-07 17:44 | 38.30065 | 27.15229 | 411 ft | 12 kts | 346° |
| 2026-05-07 17:44 | 38.30158 | 27.15201 | 414 ft | 16 kts | 346° |
| 2026-05-07 17:44 | 38.30277 | 27.15165 | 413 ft | 18 kts | 347° |
| 2026-05-07 17:44 | 38.30402 | 27.15128 | 414 ft | 19 kts | 347° |
| 2026-05-07 17:45 | 38.30521 | 27.15109 | 416 ft | 15 kts | 16° |
| 2026-05-07 17:45 | 38.30586 | 27.15132 | 421 ft | 7 kts | 345° |
| 2026-05-07 17:45 | 38.30583 | 27.15084 | 410 ft | 7 kts | 206° |
| 2026-05-07 17:45 | 38.30528 | 27.15090 | 413 ft | 12 kts | 167° |
| 2026-05-07 17:46 | 38.30278 | 27.15166 | 413 ft | 71 kts | 166° |
| 2026-05-07 17:46 | 38.29596 | 27.15372 | 414 ft | 127 kts | 166° |
| 2026-05-07 17:46 | 38.28584 | 27.15678 | 426 ft | 170 kts | 167° |
| 2026-05-07 17:46 | 38.27449 | 27.16011 | 1086 ft | 163 kts | 166° |
| 2026-05-07 17:47 | 38.26347 | 27.16368 | 1765 ft | 163 kts | 165° |
| 2026-05-07 17:47 | 38.25244 | 27.16725 | 2325 ft | 168 kts | 166° |
| 2026-05-07 17:47 | 38.24031 | 27.17112 | 2600 ft | 191 kts | 166° |
| 2026-05-07 17:47 | 38.22677 | 27.17547 | 2908 ft | 210 kts | 166° |
| 2026-05-07 17:48 | 38.21170 | 27.18030 | 3200 ft | 236 kts | 166° |
| 2026-05-07 17:48 | 38.19495 | 27.18554 | 3662 ft | 259 kts | 166° |
| 2026-05-07 17:48 | 38.17696 | 27.19076 | 4406 ft | 269 kts | 174° |
| 2026-05-07 17:48 | 38.15855 | 27.18694 | 5243 ft | 273 kts | 208° |
| 2026-05-07 17:49 | 38.14474 | 27.17052 | 6073 ft | 277 kts | 242° |
| 2026-05-07 17:49 | 38.13850 | 27.14747 | 6945 ft | 279 kts | 258° |
| 2026-05-07 17:49 | 38.13529 | 27.12314 | 7802 ft | 281 kts | 262° |
| 2026-05-07 17:49 | 38.13543 | 27.09826 | 8554 ft | 286 kts | 283° |
| 2026-05-07 17:50 | 38.14264 | 27.07505 | 9351 ft | 289 kts | 301° |
| 2026-05-07 17:50 | 38.15513 | 27.05511 | 10155 ft | 291 kts | 319° |
| 2026-05-07 17:50 | 38.17231 | 27.04060 | 10623 ft | 308 kts | 332° |
| 2026-05-07 17:50 | 38.19204 | 27.02750 | 10824 ft | 331 kts | 333° |
| 2026-05-07 17:51 | 38.21337 | 27.01409 | 11062 ft | 351 kts | 334° |
| 2026-05-07 17:51 | 38.23559 | 27.00045 | 11643 ft | 357 kts | 334° |
| 2026-05-07 17:51 | 38.25809 | 26.98666 | 12321 ft | 360 kts | 334° |
| 2026-05-07 17:51 | 38.28075 | 26.97267 | 13008 ft | 363 kts | 334° |
| 2026-05-07 17:52 | 38.30354 | 26.95846 | 13662 ft | 367 kts | 333° |
| 2026-05-07 17:52 | 38.32653 | 26.94405 | 14299 ft | 370 kts | 333° |
| 2026-05-07 17:52 | 38.34966 | 26.92946 | 14902 ft | 372 kts | 333° |
| 2026-05-07 17:52 | 38.37297 | 26.91466 | 15486 ft | 376 kts | 333° |
| 2026-05-07 17:53 | 38.39644 | 26.89976 | 16060 ft | 379 kts | 333° |
| 2026-05-07 17:53 | 38.41978 | 26.88389 | 16623 ft | 381 kts | 327° |
| 2026-05-07 17:53 | 38.44067 | 26.86300 | 17169 ft | 383 kts | 315° |
| 2026-05-07 17:53 | 38.45804 | 26.83714 | 17723 ft | 386 kts | 304° |
| 2026-05-07 17:54 | 38.47301 | 26.80864 | 18262 ft | 388 kts | 303° |
| 2026-05-07 17:54 | 38.48810 | 26.77986 | 18804 ft | 391 kts | 303° |
| 2026-05-07 17:54 | 38.50330 | 26.75093 | 19350 ft | 394 kts | 303° |
| 2026-05-07 17:54 | 38.51867 | 26.72173 | 19886 ft | 397 kts | 303° |
| 2026-05-07 17:55 | 38.53419 | 26.69227 | 20416 ft | 401 kts | 304° |
| 2026-05-07 17:55 | 38.54981 | 26.66263 | 20937 ft | 403 kts | 303° |
| 2026-05-07 17:55 | 38.56550 | 26.63279 | 21401 ft | 406 kts | 303° |
| 2026-05-07 17:55 | 38.58129 | 26.60270 | 21836 ft | 409 kts | 303° |
| 2026-05-07 17:56 | 38.59717 | 26.57243 | 22275 ft | 411 kts | 303° |
| 2026-05-07 17:56 | 38.61296 | 26.54235 | 22694 ft | 414 kts | 304° |
| 2026-05-07 17:56 | 38.63167 | 26.51427 | 23082 ft | 418 kts | 316° |
| 2026-05-07 17:56 | 38.65489 | 26.49167 | 23487 ft | 422 kts | 328° |
| 2026-05-07 17:57 | 38.68162 | 26.47586 | 23882 ft | 425 kts | 340° |
| 2026-05-07 17:57 | 38.70097 | 26.46933 | 24131 ft | 428 kts | 347° |
| 2026-05-07 17:57 | 38.73967 | 26.45886 | 24616 ft | 431 kts | 346° |
| 2026-05-07 17:57 | 38.76907 | 26.45088 | 24991 ft | 433 kts | 347° |
| 2026-05-07 17:58 | 38.79863 | 26.44260 | 25360 ft | 435 kts | 344° |
| 2026-05-07 17:58 | 38.82708 | 26.42980 | 25727 ft | 435 kts | 334° |
| 2026-05-07 17:58 | 38.85348 | 26.41085 | 26100 ft | 436 kts | 324° |
| 2026-05-07 17:58 | 38.87735 | 26.38686 | 26458 ft | 437 kts | 320° |
| 2026-05-07 17:59 | 38.90084 | 26.36184 | 26823 ft | 439 kts | 320° |
| 2026-05-07 17:59 | 38.92449 | 26.33671 | 27174 ft | 441 kts | 320° |
| 2026-05-07 17:59 | 38.94819 | 26.31157 | 27522 ft | 443 kts | 320° |
| 2026-05-07 17:59 | 38.97195 | 26.28635 | 27964 ft | 441 kts | 320° |
| 2026-05-07 18:00 | 38.99558 | 26.26123 | 28445 ft | 440 kts | 320° |
| 2026-05-07 18:00 | 39.01911 | 26.23619 | 28922 ft | 438 kts | 320° |
| 2026-05-07 18:00 | 39.04254 | 26.21122 | 29399 ft | 437 kts | 320° |
| 2026-05-07 18:00 | 39.06559 | 26.18661 | 29866 ft | 435 kts | 320° |
| 2026-05-07 18:01 | 39.08882 | 26.16175 | 30347 ft | 434 kts | 320° |
| 2026-05-07 18:01 | 39.11198 | 26.13696 | 30816 ft | 433 kts | 320° |
| 2026-05-07 18:01 | 39.13511 | 26.11218 | 31259 ft | 431 kts | 319° |
| 2026-05-07 18:01 | 39.15815 | 26.08747 | 31693 ft | 430 kts | 319° |
| 2026-05-07 18:02 | 39.20409 | 26.03818 | 32541 ft | 429 kts | 319° |
| 2026-05-07 18:02 | 39.22703 | 26.01355 | 32966 ft | 428 kts | 319° |
| 2026-05-07 18:02 | 39.24983 | 25.98901 | 33396 ft | 427 kts | 319° |
| 2026-05-07 18:03 | 39.27260 | 25.96446 | 33817 ft | 426 kts | 319° |
| 2026-05-07 18:03 | 39.29536 | 25.93991 | 34069 ft | 426 kts | 319° |
| 2026-05-07 18:03 | 39.31038 | 25.92357 | 34117 ft | 429 kts | 319° |
| 2026-05-07 18:04 | 39.36407 | 25.86390 | 34128 ft | 439 kts | 318° |
| 2026-05-07 18:04 | 39.41018 | 25.81214 | 34117 ft | 439 kts | 318° |
| 2026-05-07 18:05 | 39.45613 | 25.76059 | 34120 ft | 440 kts | 318° |
| 2026-05-07 18:05 | 39.50236 | 25.70874 | 34119 ft | 440 kts | 318° |
| 2026-05-07 18:06 | 39.54859 | 25.65688 | 34117 ft | 439 kts | 318° |
| 2026-05-07 18:06 | 39.59485 | 25.60491 | 34117 ft | 440 kts | 318° |
| 2026-05-07 18:07 | 39.64109 | 25.55297 | 34114 ft | 440 kts | 318° |
| 2026-05-07 18:07 | 39.67954 | 25.50966 | 34113 ft | 439 kts | 318° |
| 2026-05-07 18:08 | 39.73318 | 25.44904 | 34109 ft | 440 kts | 318° |
| 2026-05-07 18:08 | 39.77928 | 25.39674 | 34110 ft | 439 kts | 318° |
| 2026-05-07 18:09 | 39.81762 | 25.35318 | 34106 ft | 440 kts | 318° |
| 2026-05-07 18:09 | 39.86382 | 25.30075 | 34106 ft | 440 kts | 318° |
| 2026-05-07 18:10 | 39.90971 | 25.24798 | 34105 ft | 440 kts | 314° |
| 2026-05-07 18:10 | 39.94764 | 25.18575 | 34102 ft | 439 kts | 304° |
| 2026-05-07 18:11 | 39.98291 | 25.12070 | 34104 ft | 439 kts | 304° |
| 2026-05-07 18:11 | 40.01811 | 25.05557 | 34102 ft | 440 kts | 304° |
| 2026-05-07 18:12 | 40.05345 | 24.99024 | 34101 ft | 440 kts | 304° |
| 2026-05-07 18:12 | 40.08857 | 24.92524 | 34120 ft | 441 kts | 304° |
| 2026-05-07 18:13 | 40.12335 | 24.86068 | 34108 ft | 430 kts | 304° |
| 2026-05-07 18:13 | 40.15759 | 24.79683 | 34109 ft | 427 kts | 304° |
| 2026-05-07 18:14 | 40.19165 | 24.73330 | 34112 ft | 426 kts | 304° |
| 2026-05-07 18:14 | 40.22564 | 24.66973 | 34110 ft | 426 kts | 304° |
| 2026-05-07 18:15 | 40.25948 | 24.60622 | 34111 ft | 425 kts | 304° |
| 2026-05-07 18:15 | 40.29332 | 24.54285 | 34109 ft | 424 kts | 304° |
| 2026-05-07 18:16 | 40.32687 | 24.47998 | 34112 ft | 424 kts | 304° |
| 2026-05-07 18:16 | 40.36062 | 24.41649 | 34122 ft | 422 kts | 304° |
| 2026-05-07 18:17 | 40.39393 | 24.35329 | 34131 ft | 418 kts | 303° |
| 2026-05-07 18:17 | 40.42695 | 24.29059 | 34098 ft | 416 kts | 304° |
| 2026-05-07 18:18 | 40.46001 | 24.22787 | 34093 ft | 417 kts | 305° |
| 2026-05-07 18:18 | 40.49298 | 24.16567 | 34074 ft | 414 kts | 304° |
| 2026-05-07 18:19 | 40.52582 | 24.10325 | 34076 ft | 416 kts | 304° |
| 2026-05-07 18:19 | 40.55851 | 24.04095 | 34077 ft | 417 kts | 304° |
| 2026-05-07 18:20 | 40.59131 | 23.97816 | 34071 ft | 415 kts | 304° |
| 2026-05-07 18:20 | 40.62399 | 23.91537 | 34071 ft | 415 kts | 304° |
| 2026-05-07 18:21 | 40.65687 | 23.85231 | 34079 ft | 418 kts | 304° |
| 2026-05-07 18:21 | 40.68986 | 23.78897 | 34080 ft | 420 kts | 304° |
| 2026-05-07 18:22 | 40.72275 | 23.72545 | 34079 ft | 420 kts | 303° |
| 2026-05-07 18:22 | 40.75563 | 23.66191 | 34079 ft | 419 kts | 303° |
| 2026-05-07 18:23 | 40.78838 | 23.59869 | 34084 ft | 421 kts | 303° |
| 2026-05-07 18:23 | 40.82131 | 23.53479 | 34077 ft | 421 kts | 303° |
| 2026-05-07 18:24 | 40.85429 | 23.47082 | 34084 ft | 422 kts | 303° |
| 2026-05-07 18:24 | 40.88737 | 23.40655 | 34092 ft | 423 kts | 303° |
| 2026-05-07 18:25 | 40.92030 | 23.34220 | 34097 ft | 423 kts | 303° |
| 2026-05-07 18:25 | 40.95314 | 23.27763 | 34089 ft | 423 kts | 303° |
| 2026-05-07 18:26 | 40.98609 | 23.21302 | 34091 ft | 424 kts | 303° |
| 2026-05-07 18:26 | 41.01920 | 23.14811 | 34097 ft | 426 kts | 303° |
| 2026-05-07 18:27 | 41.05239 | 23.08299 | 34105 ft | 426 kts | 303° |
| 2026-05-07 18:27 | 41.08544 | 23.01788 | 34106 ft | 426 kts | 302° |
| 2026-05-07 18:28 | 41.12131 | 22.95614 | 34083 ft | 427 kts | 309° |
| 2026-05-07 18:28 | 41.15963 | 22.89613 | 34088 ft | 426 kts | 309° |
| 2026-05-07 18:29 | 41.19800 | 22.83595 | 34098 ft | 427 kts | 309° |
| 2026-05-07 18:29 | 41.23503 | 22.77456 | 34103 ft | 426 kts | 301° |
| 2026-05-07 18:30 | 41.25836 | 22.70271 | 34102 ft | 425 kts | 284° |
| 2026-05-07 18:30 | 41.27337 | 22.62666 | 34099 ft | 426 kts | 285° |
| 2026-05-07 18:31 | 41.28862 | 22.55053 | 34103 ft | 426 kts | 285° |
| 2026-05-07 18:31 | 41.30387 | 22.47437 | 34102 ft | 426 kts | 285° |
| 2026-05-07 18:32 | 41.31895 | 22.39811 | 34103 ft | 426 kts | 285° |
| 2026-05-07 18:32 | 41.33388 | 22.32220 | 34097 ft | 426 kts | 285° |
| 2026-05-07 18:33 | 41.34883 | 22.24582 | 34099 ft | 427 kts | 285° |
| 2026-05-07 18:33 | 41.36376 | 22.16924 | 34100 ft | 427 kts | 284° |
| 2026-05-07 18:34 | 41.37868 | 22.09267 | 34100 ft | 427 kts | 285° |
| 2026-05-07 18:34 | 41.39358 | 22.01607 | 34090 ft | 428 kts | 284° |
| 2026-05-07 18:35 | 41.40585 | 21.95225 | 34099 ft | 428 kts | 284° |
| 2026-05-07 18:35 | 41.42310 | 21.86233 | 34108 ft | 428 kts | 284° |
| 2026-05-07 18:36 | 41.43788 | 21.78543 | 34111 ft | 428 kts | 284° |
| 2026-05-07 18:36 | 41.45253 | 21.70858 | 34110 ft | 427 kts | 284° |
| 2026-05-07 18:37 | 41.46705 | 21.63180 | 34105 ft | 427 kts | 284° |
| 2026-05-07 18:37 | 41.48155 | 21.55515 | 34104 ft | 426 kts | 284° |
| 2026-05-07 18:38 | 41.49591 | 21.47891 | 34108 ft | 426 kts | 284° |
| 2026-05-07 18:38 | 41.51033 | 21.40211 | 34114 ft | 426 kts | 284° |
| 2026-05-07 18:39 | 41.52466 | 21.32545 | 34117 ft | 425 kts | 284° |
| 2026-05-07 18:39 | 41.53892 | 21.24885 | 34129 ft | 425 kts | 284° |
| 2026-05-07 18:40 | 41.55303 | 21.17290 | 34125 ft | 424 kts | 284° |
| 2026-05-07 18:40 | 41.56725 | 21.09639 | 34130 ft | 424 kts | 284° |
| 2026-05-07 18:41 | 41.58132 | 21.02008 | 34124 ft | 423 kts | 284° |
| 2026-05-07 18:41 | 41.59531 | 20.94389 | 34136 ft | 422 kts | 284° |
| 2026-05-07 18:42 | 41.60914 | 20.86789 | 34134 ft | 420 kts | 283° |
| 2026-05-07 18:42 | 41.62292 | 20.79183 | 34138 ft | 421 kts | 283° |
| 2026-05-07 18:43 | 41.63661 | 20.71620 | 34141 ft | 421 kts | 283° |
| 2026-05-07 18:43 | 41.65032 | 20.64019 | 34133 ft | 420 kts | 283° |
| 2026-05-07 18:44 | 41.66394 | 20.56448 | 34119 ft | 417 kts | 285° |
| 2026-05-07 18:44 | 41.68730 | 20.49357 | 34117 ft | 420 kts | 301° |
| 2026-05-07 18:45 | 41.71881 | 20.42764 | 34116 ft | 420 kts | 301° |
| 2026-05-07 18:45 | 41.75018 | 20.36167 | 34107 ft | 420 kts | 301° |
| 2026-05-07 18:46 | 41.78138 | 20.29568 | 34104 ft | 419 kts | 301° |
| 2026-05-07 18:46 | 41.81260 | 20.22960 | 34100 ft | 419 kts | 300° |
| 2026-05-07 18:47 | 41.84353 | 20.16380 | 34110 ft | 420 kts | 300° |
| 2026-05-07 18:47 | 41.87470 | 20.09749 | 34111 ft | 420 kts | 300° |
| 2026-05-07 18:48 | 41.90588 | 20.03101 | 34110 ft | 421 kts | 300° |
| 2026-05-07 18:48 | 41.93705 | 19.96452 | 34107 ft | 420 kts | 300° |
| 2026-05-07 18:49 | 41.96802 | 19.89811 | 34104 ft | 419 kts | 300° |
| 2026-05-07 18:49 | 41.99900 | 19.83170 | 34092 ft | 419 kts | 300° |
| 2026-05-07 18:50 | 42.02987 | 19.76506 | 34087 ft | 419 kts | 300° |
| 2026-05-07 18:50 | 42.06078 | 19.69868 | 34086 ft | 421 kts | 300° |
| 2026-05-07 18:50 | 42.07638 | 19.66513 | 33348 ft | 426 kts | 300° |
| 2026-05-07 18:51 | 42.09208 | 19.63133 | 32324 ft | 435 kts | 300° |
| 2026-05-07 18:51 | 42.10834 | 19.59622 | 31412 ft | 438 kts | 300° |
| 2026-05-07 18:51 | 42.12425 | 19.56169 | 30544 ft | 441 kts | 301° |
| 2026-05-07 18:51 | 42.14066 | 19.52598 | 29554 ft | 444 kts | 301° |
| 2026-05-07 18:52 | 42.15700 | 19.49039 | 28476 ft | 449 kts | 301° |
| 2026-05-07 18:52 | 42.17353 | 19.45441 | 27420 ft | 453 kts | 301° |
| 2026-05-07 18:52 | 42.18993 | 19.41877 | 26714 ft | 450 kts | 301° |
| 2026-05-07 18:52 | 42.20633 | 19.38314 | 25992 ft | 446 kts | 301° |
| 2026-05-07 18:53 | 42.22226 | 19.34758 | 25255 ft | 441 kts | 297° |
| 2026-05-07 18:53 | 42.23444 | 19.30991 | 24477 ft | 437 kts | 287° |
| 2026-05-07 18:53 | 42.24358 | 19.27103 | 23735 ft | 434 kts | 286° |
| 2026-05-07 18:53 | 42.25266 | 19.23224 | 22977 ft | 431 kts | 287° |
| 2026-05-07 18:54 | 42.26169 | 19.19387 | 22241 ft | 427 kts | 287° |
| 2026-05-07 18:54 | 42.27068 | 19.15584 | 21508 ft | 423 kts | 287° |
| 2026-05-07 18:54 | 42.27958 | 19.11819 | 20788 ft | 419 kts | 287° |
| 2026-05-07 18:54 | 42.28838 | 19.08095 | 20090 ft | 414 kts | 287° |
| 2026-05-07 18:55 | 42.29705 | 19.04410 | 19418 ft | 409 kts | 286° |
| 2026-05-07 18:55 | 42.30559 | 19.00765 | 18783 ft | 404 kts | 286° |
| 2026-05-07 18:55 | 42.31400 | 18.97161 | 18159 ft | 400 kts | 286° |
| 2026-05-07 18:55 | 42.32232 | 18.93592 | 17555 ft | 396 kts | 286° |
| 2026-05-07 18:56 | 42.33054 | 18.90059 | 16949 ft | 392 kts | 286° |
| 2026-05-07 18:56 | 42.33867 | 18.86560 | 16378 ft | 388 kts | 286° |
| 2026-05-07 18:56 | 42.34670 | 18.83099 | 15770 ft | 384 kts | 286° |
| 2026-05-07 18:56 | 42.35465 | 18.79668 | 15165 ft | 381 kts | 286° |
| 2026-05-07 18:57 | 42.36255 | 18.76261 | 14553 ft | 378 kts | 286° |
| 2026-05-07 18:57 | 42.37036 | 18.72891 | 13928 ft | 374 kts | 286° |
| 2026-05-07 18:57 | 42.37810 | 18.69550 | 13299 ft | 370 kts | 286° |
| 2026-05-07 18:57 | 42.38576 | 18.66236 | 12661 ft | 368 kts | 286° |
| 2026-05-07 18:58 | 42.39327 | 18.62976 | 12023 ft | 366 kts | 286° |
| 2026-05-07 18:58 | 42.40074 | 18.59709 | 11413 ft | 363 kts | 286° |
| 2026-05-07 18:58 | 42.40850 | 18.56543 | 11215 ft | 341 kts | 291° |
| 2026-05-07 18:58 | 42.41920 | 18.53820 | 11082 ft | 316 kts | 302° |
| 2026-05-07 18:59 | 42.43157 | 18.51500 | 10946 ft | 290 kts | 304° |
| 2026-05-07 18:59 | 42.44306 | 18.49365 | 10589 ft | 276 kts | 304° |
| 2026-05-07 18:59 | 42.45421 | 18.47290 | 10281 ft | 269 kts | 304° |
| 2026-05-07 18:59 | 42.46509 | 18.45234 | 10032 ft | 268 kts | 303° |
| 2026-05-07 19:00 | 42.47222 | 18.43873 | 9914 ft | 268 kts | 303° |
| 2026-05-07 19:00 | 42.48299 | 18.41807 | 9798 ft | 268 kts | 303° |
| 2026-05-07 19:00 | 42.49375 | 18.39739 | 9686 ft | 268 kts | 303° |
| 2026-05-07 19:00 | 42.50454 | 18.37671 | 9558 ft | 268 kts | 303° |
| 2026-05-07 19:01 | 42.51533 | 18.35606 | 9432 ft | 268 kts | 303° |
| 2026-05-07 19:01 | 42.52609 | 18.33544 | 9305 ft | 268 kts | 303° |
| 2026-05-07 19:01 | 42.53691 | 18.31477 | 9180 ft | 269 kts | 303° |
| 2026-05-07 19:01 | 42.54772 | 18.29413 | 9046 ft | 268 kts | 303° |
| 2026-05-07 19:02 | 42.55677 | 18.27218 | 8743 ft | 267 kts | 287° |
| 2026-05-07 19:02 | 42.55993 | 18.24758 | 8443 ft | 264 kts | 266° |
| 2026-05-07 19:02 | 42.55695 | 18.22352 | 8373 ft | 257 kts | 249° |
| 2026-05-07 19:02 | 42.54999 | 18.20116 | 8296 ft | 257 kts | 245° |
| 2026-05-07 19:03 | 42.54285 | 18.17890 | 8201 ft | 257 kts | 245° |
| 2026-05-07 19:03 | 42.53574 | 18.15673 | 8134 ft | 256 kts | 245° |
| 2026-05-07 19:03 | 42.52864 | 18.13457 | 8043 ft | 256 kts | 245° |
| 2026-05-07 19:03 | 42.52155 | 18.11241 | 7953 ft | 256 kts | 245° |
| 2026-05-07 19:04 | 42.51518 | 18.08988 | 7862 ft | 256 kts | 255° |
| 2026-05-07 19:04 | 42.51380 | 18.06569 | 7777 ft | 259 kts | 274° |
| 2026-05-07 19:04 | 42.51835 | 18.04245 | 7704 ft | 261 kts | 293° |
| 2026-05-07 19:04 | 42.52693 | 18.02076 | 7609 ft | 262 kts | 297° |
| 2026-05-07 19:05 | 42.53556 | 17.99904 | 7514 ft | 261 kts | 296° |
| 2026-05-07 19:05 | 42.54413 | 17.97731 | 7438 ft | 261 kts | 296° |
| 2026-05-07 19:05 | 42.55264 | 17.95559 | 7346 ft | 261 kts | 296° |
| 2026-05-07 19:05 | 42.56113 | 17.93390 | 7252 ft | 261 kts | 296° |
| 2026-05-07 19:06 | 42.56964 | 17.91219 | 7170 ft | 260 kts | 296° |
| 2026-05-07 19:06 | 42.58661 | 17.86885 | 6999 ft | 260 kts | 296° |
| 2026-05-07 19:06 | 42.59507 | 17.84724 | 6916 ft | 259 kts | 296° |
| 2026-05-07 19:07 | 42.60350 | 17.82567 | 6822 ft | 259 kts | 296° |
| 2026-05-07 19:07 | 42.61197 | 17.80408 | 6738 ft | 259 kts | 296° |
| 2026-05-07 19:07 | 42.62041 | 17.78257 | 6662 ft | 258 kts | 296° |
| 2026-05-07 19:07 | 42.62885 | 17.76104 | 6560 ft | 258 kts | 296° |
| 2026-05-07 19:08 | 42.63709 | 17.73993 | 6439 ft | 246 kts | 296° |
| 2026-05-07 19:08 | 42.64479 | 17.72016 | 6317 ft | 227 kts | 295° |
| 2026-05-07 19:08 | 42.65197 | 17.70173 | 6130 ft | 215 kts | 296° |
| 2026-05-07 19:08 | 42.65930 | 17.68431 | 5991 ft | 213 kts | 307° |
| 2026-05-07 19:09 | 42.67064 | 17.67142 | 5877 ft | 214 kts | 333° |
| 2026-05-07 19:09 | 42.68505 | 17.66636 | 5762 ft | 217 kts | 359° |
| 2026-05-07 19:09 | 42.69974 | 17.67025 | 5654 ft | 217 kts | 25° |
| 2026-05-07 19:09 | 42.71311 | 17.67972 | 5565 ft | 218 kts | 29° |
| 2026-05-07 19:10 | 42.72641 | 17.68935 | 5432 ft | 216 kts | 29° |
| 2026-05-07 19:10 | 42.73968 | 17.69892 | 5315 ft | 215 kts | 28° |
| 2026-05-07 19:10 | 42.75220 | 17.70983 | 5197 ft | 213 kts | 45° |
| 2026-05-07 19:10 | 42.76047 | 17.72618 | 5077 ft | 210 kts | 71° |
| 2026-05-07 19:11 | 42.76301 | 17.74522 | 4956 ft | 208 kts | 95° |
| 2026-05-07 19:11 | 42.75969 | 17.76397 | 4997 ft | 205 kts | 118° |
| 2026-05-07 19:11 | 42.75308 | 17.78122 | 5019 ft | 206 kts | 120° |
| 2026-05-07 19:11 | 42.74630 | 17.79834 | 5012 ft | 206 kts | 120° |
| 2026-05-07 19:12 | 42.73948 | 17.81542 | 5019 ft | 205 kts | 120° |
| 2026-05-07 19:12 | 42.73273 | 17.83258 | 5024 ft | 206 kts | 120° |
| 2026-05-07 19:12 | 42.72600 | 17.84978 | 5028 ft | 206 kts | 120° |
| 2026-05-07 19:12 | 42.71927 | 17.86699 | 5030 ft | 206 kts | 120° |
| 2026-05-07 19:13 | 42.71248 | 17.88436 | 4792 ft | 207 kts | 120° |
| 2026-05-07 19:13 | 42.70607 | 17.90079 | 4664 ft | 187 kts | 120° |
| 2026-05-07 19:13 | 42.70006 | 17.91615 | 4418 ft | 182 kts | 120° |
| 2026-05-07 19:13 | 42.69411 | 17.93129 | 4258 ft | 181 kts | 120° |
| 2026-05-07 19:14 | 42.68819 | 17.94641 | 4151 ft | 182 kts | 119° |
| 2026-05-07 19:14 | 42.68241 | 17.96118 | 4059 ft | 172 kts | 119° |
| 2026-05-07 19:14 | 42.67681 | 17.97544 | 4018 ft | 171 kts | 119° |
| 2026-05-07 19:14 | 42.67121 | 17.98965 | 4020 ft | 171 kts | 120° |
| 2026-05-07 19:15 | 42.66568 | 18.00375 | 4020 ft | 171 kts | 120° |
| 2026-05-07 19:15 | 42.66011 | 18.01792 | 4029 ft | 170 kts | 120° |
| 2026-05-07 19:15 | 42.65452 | 18.03216 | 3961 ft | 171 kts | 120° |
| 2026-05-07 19:15 | 42.64893 | 18.04636 | 3792 ft | 171 kts | 119° |
| 2026-05-07 19:16 | 42.64340 | 18.06047 | 3576 ft | 168 kts | 118° |
| 2026-05-07 19:16 | 42.63785 | 18.07450 | 3354 ft | 168 kts | 119° |
| 2026-05-07 19:16 | 42.63236 | 18.08848 | 3133 ft | 167 kts | 119° |
| 2026-05-07 19:16 | 42.62686 | 18.10248 | 2908 ft | 168 kts | 119° |
| 2026-05-07 19:17 | 42.62138 | 18.11636 | 2694 ft | 166 kts | 118° |
| 2026-05-07 19:17 | 42.61592 | 18.13015 | 2476 ft | 167 kts | 118° |
| 2026-05-07 19:17 | 42.61046 | 18.14400 | 2260 ft | 165 kts | 118° |
| 2026-05-07 19:17 | 42.60529 | 18.15714 | 2062 ft | 150 kts | 118° |
| 2026-05-07 19:18 | 42.60050 | 18.16930 | 1846 ft | 142 kts | 118° |
| 2026-05-07 19:18 | 42.59588 | 18.18095 | 1654 ft | 139 kts | 117° |
| 2026-05-07 19:18 | 42.59136 | 18.19235 | 1464 ft | 138 kts | 117° |
| 2026-05-07 19:18 | 42.58682 | 18.20393 | 1293 ft | 139 kts | 118° |
| 2026-05-07 19:19 | 42.58228 | 18.21536 | 1095 ft | 136 kts | 118° |
| 2026-05-07 19:19 | 42.57777 | 18.22677 | 934 ft | 137 kts | 117° |
| 2026-05-07 19:19 | 42.57328 | 18.23808 | 743 ft | 136 kts | 116° |
| 2026-05-07 19:19 | 42.56884 | 18.24935 | 551 ft | 135 kts | 117° |
| 2026-05-07 19:20 | 42.56498 | 18.25916 | 536 ft | 96 kts | 118° |
| 2026-05-07 19:20 | 42.56264 | 18.26505 | 533 ft | 46 kts | 118° |
| 2026-05-07 19:20 | 42.56159 | 18.26631 | 534 ft | 7 kts | 217° |
| 2026-05-07 19:20 | 42.56137 | 18.26574 | 534 ft | 8 kts | 241° |
| 2026-05-07 19:21 | 42.56107 | 18.26496 | 534 ft | 11 kts | 245° |
| 2026-05-07 19:21 | 42.56120 | 18.26394 | 534 ft | 13 kts | 297° |
| 2026-05-07 19:21 | 42.56126 | 18.26377 | 534 ft | 2 kts | 298° |
| 2026-05-07 19:21 | 42.56138 | 18.26347 | 534 ft | 5 kts | 298° |
| 2026-05-07 19:22 | 42.56159 | 18.26295 | 534 ft | 8 kts | 298° |
| 2026-05-07 19:22 | 42.56164 | 18.26283 | 534 ft | 0 kts | 298° |
| 2026-05-07 19:22 | 42.56165 | 18.26278 | 534 ft | 1 kts | 292° |
| 2026-05-07 19:22 | 42.56162 | 18.26274 | 534 ft | 0 kts | 243° |
| 2026-05-07 19:23 | 42.56157 | 18.26275 | 534 ft | 1 kts | 193° |
| 2026-05-07 19:23 | 42.56142 | 18.26270 | 534 ft | 3 kts | 195° |
| 2026-05-07 19:23 | 42.56114 | 18.26252 | 534 ft | 0 kts | 207° |
| 2026-05-07 19:23 | 42.56108 | 18.26247 | 534 ft | 2 kts | 208° |
| 2026-05-07 19:24 | 42.56106 | 18.26246 | 534 ft | 0 kts | 208° |